Private Wetterstation Wechselburg
Wetterdaten: Mittwoch, 25.06.2014
Datum Zeit Temp. +2m Bodentemp. Temp.+5cm Temp. Wind Windchill X Diff Temp. Feuchte +2m Feuchte +5cm Sonnenschein Luftdruck Regen Wind Richtung Richtung Sonnenschein UV Taupunkt Windchill Windben
25.06.2014 00:00 12,9 C 25,7 C 13,2 C 12,6 C 12,1 C 0,0 C 82 % 82 % 0 % 1014,1 hPa 0,0 l/m 0,0 km/h (0 Bft) O-NO 67 0 min 0,0 UV-I 9,9 C 12,1 C 0,0 km/h (0 Bft)
25.06.2014 00:05 12,7 C 25,7 C 13,2 C 12,5 C 12,1 C 0,0 C 82 % 82 % 0 % 1014,1 hPa 0,0 l/m 0,0 km/h (0 Bft) O-NO 67 0 min 0,0 UV-I 9,7 C 12,1 C 0,0 km/h (0 Bft)
25.06.2014 00:10 12,7 C 25,8 C 13,2 C 12,5 C 12,1 C 0,0 C 83 % 82 % 0 % 1014,1 hPa 0,0 l/m 0,0 km/h (0 Bft) O-NO 67 0 min 0,0 UV-I 9,9 C 12,1 C 0,0 km/h (0 Bft)
25.06.2014 00:15 12,6 C 25,8 C 13,2 C 12,4 C 12,0 C 0,0 C 83 % 82 % 0 % 1014,1 hPa 0,0 l/m 0,0 km/h (0 Bft) S 180 0 min 0,0 UV-I 9,8 C 12,0 C 0,0 km/h (0 Bft)
25.06.2014 00:20 12,5 C 25,8 C 13,1 C 12,3 C 11,9 C 0,0 C 83 % 83 % 0 % 1013,6 hPa 0,0 l/m 0,0 km/h (0 Bft) SW 225 0 min 0,0 UV-I 9,7 C 11,9 C 0,0 km/h (0 Bft)
25.06.2014 00:25 12,4 C 25,8 C 13,1 C 12,2 C 11,9 C 0,0 C 83 % 83 % 0 % 1013,6 hPa 0,0 l/m 0,2 km/h (0 Bft) W-SW 247 0 min 0,0 UV-I 9,6 C 11,9 C 0,0 km/h (0 Bft)
25.06.2014 00:30 12,3 C 25,8 C 13,0 C 12,2 C 11,9 C 0,0 C 83 % 83 % 0 % 1013,6 hPa 0,0 l/m 0,2 km/h (0 Bft) W-SW 247 0 min 0,0 UV-I 9,5 C 11,9 C 0,0 km/h (0 Bft)
25.06.2014 00:35 12,3 C 25,8 C 13,0 C 12,2 C 11,9 C 0,0 C 83 % 83 % 0 % 1013,6 hPa 0,0 l/m 0,0 km/h (0 Bft) SW 225 0 min 0,0 UV-I 9,5 C 11,9 C 0,0 km/h (0 Bft)
25.06.2014 00:41 12,1 C 25,8 C 12,8 C 12,0 C 11,8 C 0,0 C 84 % 83 % 0 % 1013,6 hPa 0,0 l/m 0,0 km/h (0 Bft) N 0 0 min 0,0 UV-I 9,5 C 11,8 C 0,0 km/h (0 Bft)
25.06.2014 01:01 11,9 C 25,7 C 12,8 C 12,0 C 12,0 C 0,1 C 84 % 83 % 0 % 1013,6 hPa 0,0 l/m 0,0 km/h (0 Bft) W-SW 247 0 min 0,0 UV-I 9,3 C 12,0 C 1,6 km/h (1 Bft)
25.06.2014 01:02 11,9 C 25,7 C 12,8 C 12,0 C 12,0 C 0,1 C 84 % 83 % 0 % 1013,6 hPa 0,0 l/m 0,0 km/h (0 Bft) W-SW 247 0 min 0,0 UV-I 9,3 C 12,0 C 1,6 km/h (1 Bft)
25.06.2014 01:05 11,9 C 25,7 C 12,8 C 12,0 C 12,0 C 0,1 C 84 % 83 % 0 % 1013,6 hPa 0,0 l/m 0,0 km/h (0 Bft) W-SW 247 0 min 0,0 UV-I 9,3 C 12,0 C 1,6 km/h (1 Bft)
25.06.2014 01:10 11,9 C 25,7 C 12,9 C 12,0 C 12,0 C 0,1 C 84 % 83 % 0 % 1013,6 hPa 0,0 l/m 0,0 km/h (0 Bft) SW 225 0 min 0,0 UV-I 9,3 C 12,0 C 0,0 km/h (0 Bft)
25.06.2014 01:15 11,9 C 25,7 C 12,9 C 12,0 C 12,0 C 0,1 C 84 % 84 % 0 % 1013,6 hPa 0,0 l/m 0,0 km/h (0 Bft) SW 225 0 min 0,0 UV-I 9,3 C 12,0 C 0,0 km/h (0 Bft)
25.06.2014 01:20 11,8 C 25,7 C 12,9 C 11,9 C 11,9 C 0,1 C 84 % 84 % 0 % 1013,4 hPa 0,0 l/m 0,0 km/h (0 Bft) W 270 0 min 0,0 UV-I 9,2 C 11,9 C 0,0 km/h (0 Bft)
25.06.2014 01:25 11,7 C 25,7 C 12,8 C 11,9 C 11,9 C 0,2 C 84 % 84 % 0 % 1013,4 hPa 0,0 l/m 0,0 km/h (0 Bft) SW 225 0 min 0,0 UV-I 9,1 C 11,9 C 0,0 km/h (0 Bft)
25.06.2014 01:30 11,7 C 25,7 C 12,8 C 11,9 C 11,9 C 0,2 C 84 % 84 % 0 % 1013,4 hPa 0,0 l/m 0,0 km/h (0 Bft) SW 225 0 min 0,0 UV-I 9,1 C 11,9 C 0,0 km/h (0 Bft)
25.06.2014 01:35 11,6 C 25,7 C 12,8 C 11,9 C 11,9 C 0,3 C 85 % 84 % 0 % 1013,4 hPa 0,0 l/m 0,0 km/h (0 Bft) SW 225 0 min 0,0 UV-I 9,2 C 11,9 C 0,0 km/h (0 Bft)
25.06.2014 01:40 11,6 C 25,8 C 12,8 C 11,9 C 11,9 C 0,3 C 85 % 84 % 0 % 1013,6 hPa 0,0 l/m 0,0 km/h (0 Bft) O-NO 67 0 min 0,0 UV-I 9,2 C 11,9 C 0,0 km/h (0 Bft)
25.06.2014 01:45 11,6 C 25,8 C 12,7 C 11,9 C 11,9 C 0,3 C 85 % 84 % 0 % 1013,6 hPa 0,0 l/m 0,0 km/h (0 Bft) O-NO 67 0 min 0,0 UV-I 9,2 C 11,9 C 0,0 km/h (0 Bft)
25.06.2014 01:50 11,6 C 25,8 C 12,7 C 11,9 C 11,9 C 0,3 C 85 % 84 % 0 % 1013,6 hPa 0,0 l/m 0,2 km/h (0 Bft) O-NO 67 0 min 0,0 UV-I 9,2 C 11,9 C 0,0 km/h (0 Bft)
25.06.2014 01:55 11,5 C 25,7 C 12,7 C 12,0 C 12,0 C 0,5 C 85 % 84 % 0 % 1013,6 hPa 0,0 l/m 0,2 km/h (0 Bft) W-SW 247 0 min 0,0 UV-I 9,1 C 12,0 C 0,0 km/h (0 Bft)
25.06.2014 02:00 11,5 C 25,7 C 12,7 C 11,9 C 11,9 C 0,4 C 85 % 85 % 0 % 1013,2 hPa 0,0 l/m 0,0 km/h (0 Bft) W-SW 247 0 min 0,0 UV-I 9,1 C 11,9 C 0,0 km/h (0 Bft)
25.06.2014 02:05 11,5 C 25,7 C 12,7 C 11,9 C 11,9 C 0,4 C 85 % 85 % 0 % 1013,2 hPa 0,0 l/m 0,2 km/h (0 Bft) SW 225 0 min 0,0 UV-I 9,1 C 11,9 C 2,6 km/h (1 Bft)
25.06.2014 02:10 11,4 C 25,7 C 12,7 C 11,8 C 11,8 C 0,4 C 85 % 85 % 0 % 1013,2 hPa 0,0 l/m 0,2 km/h (0 Bft) W-SW 247 0 min 0,0 UV-I 9,0 C 11,8 C 0,0 km/h (0 Bft)
25.06.2014 02:15 11,4 C 25,8 C 12,7 C 11,7 C 11,7 C 0,3 C 85 % 85 % 0 % 1013,2 hPa 0,0 l/m 0,0 km/h (0 Bft) O-NO 67 0 min 0,0 UV-I 9,0 C 11,7 C 0,0 km/h (0 Bft)
25.06.2014 02:20 11,5 C 25,7 C 12,7 C 11,7 C 11,7 C 0,2 C 85 % 85 % 0 % 1013,2 hPa 0,0 l/m 0,0 km/h (0 Bft) S 180 0 min 0,0 UV-I 9,1 C 11,7 C 0,0 km/h (0 Bft)
25.06.2014 02:25 11,5 C 25,7 C 12,5 C 11,6 C 11,6 C 0,1 C 85 % 85 % 0 % 1013,2 hPa 0,0 l/m 0,0 km/h (0 Bft) S 180 0 min 0,0 UV-I 9,1 C 11,6 C 0,0 km/h (0 Bft)
25.06.2014 02:30 11,3 C 25,7 C 12,5 C 11,5 C 11,5 C 0,2 C 85 % 85 % 0 % 1013,2 hPa 0,0 l/m 0,0 km/h (0 Bft) SO 135 0 min 0,0 UV-I 8,9 C 11,5 C 0,0 km/h (0 Bft)
25.06.2014 02:35 11,3 C 25,8 C 12,5 C 11,4 C 11,4 C 0,1 C 85 % 85 % 0 % 1013,2 hPa 0,0 l/m 0,0 km/h (0 Bft) O 90 0 min 0,0 UV-I 8,9 C 11,4 C 0,0 km/h (0 Bft)
25.06.2014 02:40 11,3 C 25,8 C 12,4 C 11,5 C 11,5 C 0,2 C 86 % 85 % 0 % 1013,1 hPa 0,0 l/m 0,0 km/h (0 Bft) O-SO 112 0 min 0,0 UV-I 9,0 C 11,5 C 0,0 km/h (0 Bft)
25.06.2014 02:45 11,2 C 25,7 C 12,4 C 11,5 C 11,5 C 0,3 C 86 % 85 % 0 % 1013,1 hPa 0,0 l/m 0,0 km/h (0 Bft) O-NO 67 0 min 0,0 UV-I 8,9 C 11,5 C 0,0 km/h (0 Bft)
25.06.2014 02:50 11,3 C 25,7 C 12,5 C 11,6 C 11,6 C 0,3 C 86 % 85 % 0 % 1013,1 hPa 0,0 l/m 0,0 km/h (0 Bft) N-NW 337 0 min 0,0 UV-I 9,0 C 11,6 C 0,0 km/h (0 Bft)
25.06.2014 02:55 11,3 C 25,7 C 12,5 C 11,7 C 11,7 C 0,4 C 86 % 85 % 0 % 1013,1 hPa 0,0 l/m 0,0 km/h (0 Bft) NO 45 0 min 0,0 UV-I 9,0 C 11,7 C 0,0 km/h (0 Bft)
25.06.2014 03:00 11,2 C 25,6 C 12,5 C 11,7 C 11,7 C 0,5 C 86 % 85 % 0 % 1012,4 hPa 0,0 l/m 0,0 km/h (0 Bft) O-NO 67 0 min 0,0 UV-I 8,9 C 11,7 C 0,0 km/h (0 Bft)
25.06.2014 03:05 11,2 C 25,6 C 12,4 C 11,7 C 11,7 C 0,5 C 86 % 85 % 0 % 1012,4 hPa 0,0 l/m 0,0 km/h (0 Bft) S 180 0 min 0,0 UV-I 8,9 C 11,7 C 0,0 km/h (0 Bft)
25.06.2014 03:10 11,3 C 25,6 C 12,4 C 11,7 C 11,7 C 0,4 C 86 % 85 % 0 % 1012,4 hPa 0,0 l/m 0,0 km/h (0 Bft) W 270 0 min 0,0 UV-I 9,0 C 11,7 C 0,0 km/h (0 Bft)
25.06.2014 03:15 11,3 C 25,5 C 12,4 C 11,6 C 11,6 C 0,3 C 86 % 85 % 0 % 1012,4 hPa 0,0 l/m 0,0 km/h (0 Bft) NW 315 0 min 0,0 UV-I 9,0 C 11,6 C 0,0 km/h (0 Bft)
25.06.2014 03:20 11,3 C 25,5 C 12,4 C 11,7 C 11,7 C 0,4 C 86 % 84 % 0 % 1012,6 hPa 0,0 l/m 0,0 km/h (0 Bft) O-NO 67 0 min 0,0 UV-I 9,0 C 11,7 C 0,0 km/h (0 Bft)
25.06.2014 03:25 11,3 C 25,5 C 12,5 C 11,8 C 11,8 C 0,5 C 86 % 84 % 0 % 1012,6 hPa 0,0 l/m 0,5 km/h (0 Bft) O-NO 67 0 min 0,0 UV-I 9,0 C 11,8 C 1,8 km/h (1 Bft)
25.06.2014 03:30 11,3 C 25,5 C 12,5 C 11,9 C 11,9 C 0,6 C 86 % 85 % 0 % 1012,6 hPa 0,0 l/m 0,5 km/h (0 Bft) O 90 0 min 0,0 UV-I 9,0 C 11,9 C 0,0 km/h (0 Bft)
25.06.2014 03:35 11,3 C 25,5 C 12,4 C 11,9 C 11,9 C 0,6 C 86 % 85 % 0 % 1012,6 hPa 0,0 l/m 0,8 km/h (0 Bft) O-NO 67 0 min 0,0 UV-I 9,0 C 11,9 C 3,1 km/h (1 Bft)
25.06.2014 03:40 11,3 C 25,5 C 12,4 C 12,0 C 12,0 C 0,7 C 85 % 85 % 0 % 1011,9 hPa 0,0 l/m 1,6 km/h (1 Bft) SO 135 0 min 0,0 UV-I 8,9 C 12,0 C 3,2 km/h (1 Bft)
25.06.2014 03:45 11,4 C 25,5 C 12,4 C 12,0 C 12,0 C 0,6 C 85 % 84 % 0 % 1011,9 hPa 0,0 l/m 1,0 km/h (0 Bft) W-SW 247 0 min 0,0 UV-I 9,0 C 12,0 C 0,0 km/h (0 Bft)
25.06.2014 03:50 11,5 C 25,5 C 12,5 C 11,9 C 11,9 C 0,4 C 85 % 85 % 0 % 1011,9 hPa 0,0 l/m 0,3 km/h (0 Bft) W-SW 247 0 min 0,0 UV-I 9,1 C 11,9 C 0,0 km/h (0 Bft)
25.06.2014 03:55 11,4 C 25,5 C 12,5 C 11,9 C 11,9 C 0,5 C 85 % 85 % 0 % 1011,9 hPa 0,0 l/m 0,3 km/h (0 Bft) S-SW 202 0 min 0,0 UV-I 9,0 C 11,9 C 0,0 km/h (0 Bft)
25.06.2014 04:00 11,4 C 25,5 C 12,4 C 11,7 C 11,7 C 0,3 C 85 % 85 % 0 % 1012,1 hPa 0,0 l/m 0,0 km/h (0 Bft) N-NW 337 0 min 0,0 UV-I 9,0 C 11,7 C 0,0 km/h (0 Bft)
25.06.2014 04:05 11,4 C 25,5 C 12,5 C 11,6 C 11,6 C 0,2 C 85 % 85 % 0 % 1012,1 hPa 0,0 l/m 0,0 km/h (0 Bft) SW 225 0 min 0,0 UV-I 9,0 C 11,6 C 0,0 km/h (0 Bft)
25.06.2014 04:10 11,4 C 25,5 C 12,5 C 11,4 C 11,4 C 0,0 C 85 % 85 % 0 % 1012,1 hPa 0,0 l/m 0,0 km/h (0 Bft) W-SW 247 0 min 0,0 UV-I 9,0 C 11,4 C 0,0 km/h (0 Bft)
25.06.2014 04:15 11,3 C 25,5 C 12,4 C 11,4 C 11,4 C 0,1 C 85 % 85 % 0 % 1012,1 hPa 0,0 l/m 0,0 km/h (0 Bft) W-SW 247 0 min 0,0 UV-I 8,9 C 11,4 C 0,0 km/h (0 Bft)
25.06.2014 04:20 11,3 C 25,5 C 12,4 C 11,4 C 11,4 C 0,1 C 85 % 85 % 0 % 1011,9 hPa 0,0 l/m 0,0 km/h (0 Bft) S-SW 202 0 min 0,0 UV-I 8,9 C 11,4 C 0,0 km/h (0 Bft)
25.06.2014 04:25 11,3 C 25,5 C 12,5 C 11,4 C 11,4 C 0,1 C 85 % 85 % 0 % 1011,9 hPa 0,0 l/m 0,0 km/h (0 Bft) S-SW 202 0 min 0,0 UV-I 8,9 C 11,4 C 0,0 km/h (0 Bft)
25.06.2014 04:30 11,3 C 25,5 C 12,4 C 11,4 C 11,4 C 0,1 C 85 % 85 % 0 % 1011,9 hPa 0,0 l/m 0,0 km/h (0 Bft) S-SW 202 0 min 0,0 UV-I 8,9 C 11,4 C 0,0 km/h (0 Bft)
25.06.2014 04:35 11,2 C 25,5 C 12,4 C 11,4 C 11,4 C 0,2 C 86 % 85 % 0 % 1011,9 hPa 0,0 l/m 0,0 km/h (0 Bft) S 180 0 min 0,0 UV-I 8,9 C 11,4 C 0,0 km/h (0 Bft)
25.06.2014 04:40 11,2 C 25,5 C 12,3 C 11,5 C 11,5 C 0,3 C 85 % 84 % 0 % 1011,7 hPa 0,0 l/m 0,0 km/h (0 Bft) S-SO 157 0 min 0,0 UV-I 8,8 C 11,5 C 0,0 km/h (0 Bft)
25.06.2014 04:45 11,2 C 25,5 C 12,3 C 11,4 C 11,4 C 0,2 C 86 % 84 % 0 % 1011,7 hPa 0,0 l/m 0,0 km/h (0 Bft) O-SO 112 0 min 0,0 UV-I 8,9 C 11,4 C 0,0 km/h (0 Bft)
25.06.2014 04:50 11,2 C 25,5 C 12,2 C 11,4 C 11,4 C 0,2 C 86 % 85 % 0 % 1011,7 hPa 0,0 l/m 0,2 km/h (0 Bft) NW 315 0 min 0,0 UV-I 8,9 C 11,4 C 0,0 km/h (0 Bft)
25.06.2014 04:55 11,2 C 25,5 C 12,2 C 11,3 C 11,3 C 0,1 C 86 % 85 % 0 % 1011,7 hPa 0,0 l/m 0,2 km/h (0 Bft) SW 225 0 min 0,0 UV-I 8,9 C 11,3 C 0,0 km/h (0 Bft)
25.06.2014 05:00 11,1 C 25,5 C 12,2 C 11,2 C 11,2 C 0,1 C 86 % 85 % 0 % 1012,0 hPa 0,0 l/m 0,0 km/h (0 Bft) S-SW 202 0 min 0,0 UV-I 8,8 C 11,2 C 0,0 km/h (0 Bft)
25.06.2014 05:05 11,1 C 25,5 C 12,3 C 11,2 C 11,2 C 0,1 C 86 % 85 % 0 % 1012,0 hPa 0,0 l/m 0,0 km/h (0 Bft) W-SW 247 0 min 0,0 UV-I 8,8 C 11,2 C 0,0 km/h (0 Bft)
25.06.2014 05:10 11,1 C 25,6 C 12,1 C 11,2 C 11,2 C 0,1 C 86 % 85 % 3 % 1012,0 hPa 0,0 l/m 0,0 km/h (0 Bft) W-SW 247 0 min 0,0 UV-I 8,8 C 11,2 C 0,0 km/h (0 Bft)
25.06.2014 05:15 11,1 C 25,7 C 12,0 C 11,2 C 11,2 C 0,1 C 86 % 86 % 3 % 1012,0 hPa 0,0 l/m 0,0 km/h (0 Bft) S-SW 202 0 min 0,0 UV-I 8,8 C 11,2 C 0,0 km/h (0 Bft)
25.06.2014 05:20 11,1 C 25,7 C 12,0 C 11,2 C 11,2 C 0,1 C 86 % 86 % 3 % 1011,9 hPa 0,0 l/m 0,0 km/h (0 Bft) W 270 0 min 0,0 UV-I 8,8 C 11,2 C 0,0 km/h (0 Bft)
25.06.2014 05:25 11,1 C 25,7 C 11,9 C 11,2 C 11,2 C 0,1 C 86 % 86 % 3 % 1011,9 hPa 0,0 l/m 0,0 km/h (0 Bft) N-NW 337 0 min 0,0 UV-I 8,8 C 11,2 C 0,0 km/h (0 Bft)
25.06.2014 05:30 10,9 C 25,7 C 11,9 C 11,2 C 11,2 C 0,3 C 86 % 86 % 8 % 1011,9 hPa 0,7 l/m 0,0 km/h (0 Bft) O-NO 67 0 min 0,0 UV-I 8,7 C 11,2 C 0,0 km/h (0 Bft)
25.06.2014 05:35 10,9 C 25,7 C 11,7 C 11,2 C 11,2 C 0,3 C 86 % 86 % 8 % 1011,9 hPa 0,0 l/m 0,0 km/h (0 Bft) NO 45 0 min 0,0 UV-I 8,7 C 11,2 C 0,0 km/h (0 Bft)
25.06.2014 05:40 10,8 C 25,7 C 11,7 C 11,2 C 11,2 C 0,4 C 86 % 87 % 11 % 1011,8 hPa 0,7 l/m 0,0 km/h (0 Bft) O-NO 67 0 min 0,0 UV-I 8,6 C 11,2 C 0,0 km/h (0 Bft)
25.06.2014 05:45 10,8 C 25,7 C 11,7 C 11,2 C 11,2 C 0,4 C 86 % 88 % 11 % 1011,8 hPa 0,0 l/m 0,0 km/h (0 Bft) O-SO 112 0 min 0,0 UV-I 8,6 C 11,2 C 0,0 km/h (0 Bft)
25.06.2014 05:50 10,8 C 25,7 C 11,8 C 11,2 C 11,2 C 0,4 C 86 % 88 % 11 % 1011,8 hPa 0,0 l/m 0,2 km/h (0 Bft) SW 225 0 min 0,0 UV-I 8,6 C 11,2 C 1,6 km/h (1 Bft)
25.06.2014 05:55 10,8 C 25,6 C 12,1 C 11,3 C 11,3 C 0,5 C 87 % 89 % 13 % 1011,8 hPa 0,0 l/m 0,2 km/h (0 Bft) S 180 0 min 0,0 UV-I 8,7 C 11,3 C 0,0 km/h (0 Bft)
25.06.2014 06:00 10,9 C 25,6 C 12,0 C 11,3 C 11,3 C 0,4 C 87 % 89 % 11 % 1011,8 hPa 0,0 l/m 0,0 km/h (0 Bft) W-SW 247 0 min 0,0 UV-I 8,8 C 11,3 C 0,0 km/h (0 Bft)
25.06.2014 06:05 10,8 C 25,6 C 12,0 C 11,3 C 11,3 C 0,5 C 87 % 90 % 13 % 1011,8 hPa 0,7 l/m 0,0 km/h (0 Bft) S 180 0 min 0,0 UV-I 8,7 C 11,3 C 0,0 km/h (0 Bft)
25.06.2014 06:10 10,9 C 25,6 C 12,0 C 11,3 C 11,3 C 0,4 C 87 % 90 % 11 % 1011,8 hPa 0,0 l/m 0,0 km/h (0 Bft) O-NO 67 0 min 0,0 UV-I 8,8 C 11,3 C 0,0 km/h (0 Bft)
25.06.2014 06:15 10,8 C 25,6 C 12,0 C 11,3 C 11,3 C 0,5 C 87 % 90 % 13 % 1011,8 hPa 0,0 l/m 0,0 km/h (0 Bft) NW 315 0 min 0,0 UV-I 8,7 C 11,3 C 0,0 km/h (0 Bft)
25.06.2014 06:20 10,8 C 25,6 C 12,0 C 11,4 C 11,4 C 0,6 C 87 % 90 % 16 % 1011,4 hPa 0,0 l/m 0,0 km/h (0 Bft) N-NW 337 0 min 0,0 UV-I 8,7 C 11,4 C 0,0 km/h (0 Bft)
25.06.2014 06:25 10,8 C 25,6 C 12,1 C 11,4 C 11,4 C 0,6 C 87 % 90 % 16 % 1011,4 hPa 0,0 l/m 0,0 km/h (0 Bft) W-NW 292 0 min 0,0 UV-I 8,7 C 11,4 C 0,0 km/h (0 Bft)
25.06.2014 06:30 10,9 C 25,6 C 12,1 C 11,5 C 11,5 C 0,6 C 88 % 90 % 16 % 1011,4 hPa 0,0 l/m 0,0 km/h (0 Bft) W-SW 247 0 min 0,0 UV-I 9,0 C 11,5 C 0,0 km/h (0 Bft)
25.06.2014 06:35 10,9 C 25,6 C 12,3 C 11,5 C 11,5 C 0,6 C 88 % 91 % 16 % 1011,4 hPa 0,0 l/m 0,0 km/h (0 Bft) O-NO 67 0 min 0,0 UV-I 9,0 C 11,5 C 0,0 km/h (0 Bft)
25.06.2014 06:41 10,8 C 25,6 C 12,3 C 11,7 C 11,7 C 0,9 C 88 % 91 % 24 % 1010,8 hPa 0,0 l/m 0,5 km/h (0 Bft) N 0 0 min 0,0 UV-I 8,9 C 11,7 C 3,1 km/h (1 Bft)
25.06.2014 07:01 11,1 C 25,6 C 12,7 C 12,6 C 12,6 C 1,5 C 89 % 91 % 39 % 1010,6 hPa 0,0 l/m 0,3 km/h (0 Bft) SW 225 0 min 0,0 UV-I 9,4 C 12,6 C 1,8 km/h (1 Bft)
25.06.2014 07:02 11,1 C 25,6 C 12,7 C 12,6 C 12,6 C 1,5 C 89 % 91 % 39 % 1010,6 hPa 0,0 l/m 0,3 km/h (0 Bft) SW 225 0 min 0,0 UV-I 9,4 C 12,6 C 1,8 km/h (1 Bft)
25.06.2014 07:03 11,1 C 25,6 C 12,7 C 12,6 C 12,6 C 1,5 C 89 % 91 % 39 % 1010,6 hPa 0,0 l/m 0,3 km/h (0 Bft) SW 225 0 min 0,0 UV-I 9,4 C 12,6 C 1,8 km/h (1 Bft)
25.06.2014 07:10 11,2 C 25,6 C 12,8 C 12,7 C 12,7 C 1,5 C 89 % 91 % 39 % 1010,6 hPa 0,0 l/m 0,2 km/h (0 Bft) S 180 0 min 0,0 UV-I 9,5 C 12,7 C 0,0 km/h (0 Bft)
25.06.2014 07:15 11,2 C 25,6 C 12,8 C 12,6 C 12,6 C 1,4 C 89 % 91 % 37 % 1010,6 hPa 0,0 l/m 0,0 km/h (0 Bft) W-SW 247 0 min 0,0 UV-I 9,5 C 12,6 C 0,0 km/h (0 Bft)
25.06.2014 07:20 11,3 C 25,6 C 12,9 C 12,5 C 12,5 C 1,2 C 89 % 91 % 32 % 1010,8 hPa 0,0 l/m 0,0 km/h (0 Bft) W-SW 247 0 min 0,0 UV-I 9,6 C 12,5 C 0,0 km/h (0 Bft)
25.06.2014 07:25 11,2 C 25,5 C 12,8 C 12,5 C 12,5 C 1,3 C 89 % 92 % 34 % 1010,8 hPa 0,0 l/m 0,3 km/h (0 Bft) W-SW 247 0 min 0,0 UV-I 9,5 C 12,5 C 0,0 km/h (0 Bft)
25.06.2014 07:30 11,3 C 25,5 C 12,7 C 12,5 C 12,5 C 1,2 C 89 % 92 % 32 % 1010,8 hPa 0,0 l/m 0,3 km/h (0 Bft) W 270 0 min 0,0 UV-I 9,6 C 12,5 C 1,6 km/h (1 Bft)
25.06.2014 07:35 11,3 C 25,5 C 12,7 C 12,5 C 12,5 C 1,2 C 89 % 92 % 32 % 1010,8 hPa 0,0 l/m 0,0 km/h (0 Bft) SW 225 0 min 0,0 UV-I 9,6 C 12,5 C 0,0 km/h (0 Bft)
25.06.2014 07:40 11,5 C 25,5 C 12,7 C 12,7 C 12,7 C 1,2 C 89 % 92 % 32 % 1010,6 hPa 0,0 l/m 0,0 km/h (0 Bft) N 360 0 min 0,0 UV-I 9,8 C 12,7 C 0,0 km/h (0 Bft)
25.06.2014 07:45 11,4 C 25,5 C 12,8 C 12,8 C 12,8 C 1,4 C 89 % 92 % 37 % 1010,6 hPa 0,0 l/m 0,0 km/h (0 Bft) W-SW 247 0 min 0,0 UV-I 9,7 C 12,8 C 0,0 km/h (0 Bft)
25.06.2014 07:50 11,6 C 25,5 C 12,9 C 12,9 C 12,9 C 1,3 C 89 % 92 % 34 % 1010,6 hPa 0,0 l/m 0,2 km/h (0 Bft) W 270 0 min 0,0 UV-I 9,8 C 12,9 C 0,0 km/h (0 Bft)
25.06.2014 07:55 11,5 C 25,5 C 13,0 C 13,0 C 13,0 C 1,5 C 89 % 92 % 39 % 1010,6 hPa 0,0 l/m 0,2 km/h (0 Bft) SW 225 0 min 0,0 UV-I 9,8 C 13,0 C 0,0 km/h (0 Bft)
25.06.2014 08:00 11,6 C 25,5 C 13,1 C 13,1 C 13,1 C 1,5 C 88 % 92 % 39 % 1010,6 hPa 0,0 l/m 0,2 km/h (0 Bft) O 90 0 min 0,0 UV-I 9,7 C 13,1 C 0,0 km/h (0 Bft)
25.06.2014 08:05 11,6 C 25,5 C 13,0 C 13,3 C 13,3 C 1,7 C 89 % 92 % 45 % 1010,6 hPa 0,0 l/m 0,0 km/h (0 Bft) W-SW 247 0 min 0,0 UV-I 9,8 C 13,3 C 0,0 km/h (0 Bft)
25.06.2014 08:10 11,7 C 25,5 C 13,0 C 13,3 C 13,3 C 1,6 C 89 % 92 % 42 % 1010,6 hPa 0,0 l/m 0,0 km/h (0 Bft) N-NW 337 0 min 0,0 UV-I 9,9 C 13,3 C 0,0 km/h (0 Bft)
25.06.2014 08:15 11,9 C 25,5 C 13,0 C 13,4 C 13,4 C 1,5 C 88 % 92 % 39 % 1010,6 hPa 0,0 l/m 0,2 km/h (0 Bft) W-NW 292 0 min 0,0 UV-I 10,0 C 13,4 C 1,6 km/h (1 Bft)
25.06.2014 08:20 11,9 C 25,5 C 13,0 C 13,8 C 13,8 C 1,9 C 88 % 92 % 50 % 1010,5 hPa 0,0 l/m 0,5 km/h (0 Bft) W-NW 292 0 min 0,0 UV-I 10,0 C 13,8 C 1,9 km/h (1 Bft)
25.06.2014 08:25 11,8 C 25,5 C 13,0 C 13,8 C 13,8 C 2,0 C 88 % 92 % 53 % 1010,5 hPa 0,0 l/m 0,5 km/h (0 Bft) W-SW 247 0 min 0,0 UV-I 9,9 C 13,8 C 0,0 km/h (0 Bft)
25.06.2014 08:30 11,8 C 25,4 C 13,0 C 13,6 C 13,6 C 1,8 C 88 % 92 % 47 % 1010,5 hPa 0,0 l/m 0,3 km/h (0 Bft) S 180 0 min 0,0 UV-I 9,9 C 13,6 C 1,8 km/h (1 Bft)
25.06.2014 08:35 11,9 C 25,4 C 13,1 C 13,5 C 13,5 C 1,6 C 88 % 92 % 42 % 1010,5 hPa 0,0 l/m 0,3 km/h (0 Bft) S 180 0 min 0,0 UV-I 10,0 C 13,5 C 0,0 km/h (0 Bft)
25.06.2014 08:40 11,7 C 25,4 C 13,1 C 13,4 C 13,4 C 1,7 C 88 % 92 % 45 % 1010,8 hPa 0,0 l/m 0,5 km/h (0 Bft) S 180 0 min 0,0 UV-I 9,8 C 13,4 C 2,1 km/h (1 Bft)
25.06.2014 08:45 11,7 C 25,4 C 13,1 C 13,4 C 13,4 C 1,7 C 87 % 92 % 45 % 1010,8 hPa 0,0 l/m 0,5 km/h (0 Bft) W-SW 247 0 min 0,0 UV-I 9,6 C 13,4 C 0,0 km/h (0 Bft)
25.06.2014 08:50 11,7 C 25,4 C 13,1 C 13,6 C 13,6 C 1,9 C 88 % 92 % 50 % 1010,8 hPa 0,0 l/m 0,6 km/h (0 Bft) NW 315 0 min 0,0 UV-I 9,8 C 13,6 C 0,0 km/h (0 Bft)
25.06.2014 08:55 11,7 C 25,4 C 13,0 C 13,7 C 13,7 C 2,0 C 88 % 92 % 53 % 1010,8 hPa 0,0 l/m 0,2 km/h (0 Bft) S 180 0 min 0,0 UV-I 9,8 C 13,7 C 1,6 km/h (1 Bft)
25.06.2014 09:00 11,9 C 25,4 C 13,1 C 13,9 C 13,9 C 2,0 C 88 % 92 % 53 % 1010,9 hPa 0,0 l/m 0,2 km/h (0 Bft) SW 225 0 min 0,0 UV-I 10,0 C 13,9 C 3,7 km/h (1 Bft)
25.06.2014 09:05 11,8 C 25,4 C 13,1 C 13,8 C 13,8 C 2,0 C 88 % 92 % 53 % 1010,9 hPa 0,0 l/m 0,8 km/h (0 Bft) W 270 0 min 0,0 UV-I 9,9 C 13,8 C 1,9 km/h (1 Bft)
25.06.2014 09:10 11,8 C 25,4 C 12,9 C 13,8 C 13,8 C 2,0 C 87 % 92 % 53 % 1010,9 hPa 0,0 l/m 0,8 km/h (0 Bft) NO 45 0 min 0,0 UV-I 9,7 C 13,8 C 4,7 km/h (1 Bft)
25.06.2014 09:15 11,8 C 25,4 C 13,3 C 14,3 C 14,3 C 2,5 C 88 % 92 % 66 % 1010,9 hPa 0,0 l/m 0,3 km/h (0 Bft) NW 315 0 min 0,0 UV-I 9,9 C 14,3 C 1,8 km/h (1 Bft)
25.06.2014 09:20 12,0 C 25,4 C 13,2 C 14,8 C 14,8 C 2,8 C 88 % 92 % 74 % 1010,9 hPa 0,0 l/m 0,5 km/h (0 Bft) W-SW 247 0 min 0,0 UV-I 10,1 C 14,8 C 2,1 km/h (1 Bft)
25.06.2014 09:25 12,0 C 25,4 C 13,2 C 14,9 C 14,9 C 2,9 C 88 % 92 % 76 % 1010,9 hPa 0,0 l/m 0,5 km/h (0 Bft) N 360 0 min 0,0 UV-I 10,1 C 14,9 C 0,0 km/h (0 Bft)
25.06.2014 09:30 12,0 C 25,3 C 13,2 C 14,6 C 14,6 C 2,6 C 87 % 92 % 68 % 1010,9 hPa 0,0 l/m 0,5 km/h (0 Bft) S-SW 202 0 min 0,0 UV-I 9,9 C 14,6 C 2,7 km/h (1 Bft)
25.06.2014 09:35 12,0 C 25,3 C 13,2 C 14,4 C 14,4 C 2,4 C 87 % 92 % 63 % 1010,9 hPa 0,0 l/m 0,5 km/h (0 Bft) S 180 0 min 0,0 UV-I 9,9 C 14,4 C 2,3 km/h (1 Bft)
25.06.2014 09:40 12,1 C 25,3 C 13,3 C 14,0 C 14,0 C 1,9 C 87 % 92 % 50 % 1010,9 hPa 0,0 l/m 1,0 km/h (0 Bft) W 270 0 min 0,0 UV-I 10,0 C 14,0 C 2,7 km/h (1 Bft)
25.06.2014 09:45 12,0 C 25,3 C 13,3 C 13,6 C 13,6 C 1,6 C 87 % 92 % 42 % 1010,9 hPa 0,0 l/m 1,8 km/h (1 Bft) S 180 0 min 0,0 UV-I 9,9 C 13,6 C 1,9 km/h (1 Bft)
25.06.2014 09:50 11,9 C 25,3 C 13,0 C 13,1 C 13,1 C 1,2 C 87 % 92 % 32 % 1010,9 hPa 0,0 l/m 3,2 km/h (1 Bft) S 180 0 min 0,0 UV-I 9,8 C 13,1 C 8,4 km/h (2 Bft)
25.06.2014 09:55 11,6 C 25,4 C 12,7 C 12,6 C 12,6 C 1,0 C 87 % 92 % 26 % 1010,9 hPa 1,4 l/m 3,2 km/h (1 Bft) N 360 0 min 0,0 UV-I 9,5 C 12,6 C 5,5 km/h (1 Bft)
25.06.2014 10:00 11,4 C 25,4 C 12,3 C 12,0 C 12,0 C 0,6 C 87 % 92 % 16 % 1011,1 hPa 1,4 l/m 3,2 km/h (1 Bft) W 270 0 min 0,0 UV-I 9,3 C 12,0 C 3,5 km/h (1 Bft)
25.06.2014 10:05 11,2 C 25,4 C 12,1 C 11,7 C 11,7 C 0,5 C 86 % 92 % 13 % 1011,1 hPa 0,0 l/m 2,9 km/h (1 Bft) W-SW 247 0 min 0,0 UV-I 8,9 C 11,7 C 1,9 km/h (1 Bft)
25.06.2014 10:10 11,1 C 25,3 C 11,9 C 11,5 C 11,5 C 0,4 C 86 % 92 % 11 % 1011,1 hPa 0,7 l/m 2,4 km/h (1 Bft) S 180 0 min 0,0 UV-I 8,8 C 11,5 C 1,6 km/h (1 Bft)
25.06.2014 10:15 10,9 C 25,3 C 11,9 C 11,4 C 11,4 C 0,5 C 86 % 92 % 13 % 1011,1 hPa 0,0 l/m 1,9 km/h (1 Bft) O-NO 67 0 min 0,0 UV-I 8,7 C 11,4 C 4,3 km/h (1 Bft)
25.06.2014 10:20 10,7 C 25,3 C 11,8 C 11,4 C 11,4 C 0,7 C 87 % 92 % 18 % 1011,2 hPa 0,0 l/m 1,6 km/h (1 Bft) NW 315 0 min 0,0 UV-I 8,6 C 11,4 C 2,3 km/h (1 Bft)
25.06.2014 10:25 10,6 C 25,3 C 11,9 C 11,4 C 11,4 C 0,8 C 87 % 92 % 21 % 1011,2 hPa 0,0 l/m 1,8 km/h (1 Bft) SW 225 0 min 0,0 UV-I 8,5 C 11,4 C 6,1 km/h (2 Bft)
25.06.2014 10:30 10,6 C 25,3 C 11,9 C 11,4 C 11,4 C 0,8 C 87 % 92 % 21 % 1011,2 hPa 0,7 l/m 2,1 km/h (1 Bft) NW 315 0 min 0,0 UV-I 8,5 C 11,4 C 2,3 km/h (1 Bft)
25.06.2014 10:35 10,5 C 25,3 C 11,7 C 11,2 C 11,2 C 0,7 C 87 % 92 % 18 % 1011,2 hPa 0,0 l/m 2,9 km/h (1 Bft) NO 45 0 min 0,0 UV-I 8,4 C 11,2 C 4,8 km/h (1 Bft)
25.06.2014 10:40 10,4 C 25,3 C 11,6 C 11,1 C 11,1 C 0,7 C 87 % 92 % 18 % 1011,8 hPa 0,0 l/m 2,1 km/h (1 Bft) NW 315 0 min 0,0 UV-I 8,3 C 11,1 C 3,5 km/h (1 Bft)
25.06.2014 10:45 10,3 C 25,3 C 11,6 C 11,1 C 11,1 C 0,8 C 88 % 92 % 21 % 1011,8 hPa 0,7 l/m 1,4 km/h (1 Bft) W-SW 247 0 min 0,0 UV-I 8,4 C 11,1 C 0,0 km/h (0 Bft)
25.06.2014 10:50 10,3 C 25,3 C 11,6 C 11,2 C 11,2 C 0,9 C 88 % 92 % 24 % 1011,8 hPa 0,0 l/m 0,6 km/h (0 Bft) N-NO 22 0 min 0,0 UV-I 8,4 C 11,2 C 1,8 km/h (1 Bft)
25.06.2014 10:55 10,3 C 25,3 C 11,6 C 11,4 C 11,4 C 1,1 C 88 % 92 % 29 % 1011,8 hPa 0,0 l/m 0,3 km/h (0 Bft) S 180 0 min 0,0 UV-I 8,4 C 11,4 C 1,6 km/h (1 Bft)
25.06.2014 11:00 10,3 C 25,3 C 11,7 C 11,6 C 11,6 C 1,3 C 88 % 92 % 34 % 1011,9 hPa 0,7 l/m 0,2 km/h (0 Bft) S-SO 157 0 min 0,0 UV-I 8,4 C 11,6 C 1,6 km/h (1 Bft)
25.06.2014 11:05 10,3 C 25,3 C 11,9 C 11,7 C 11,7 C 1,4 C 88 % 92 % 37 % 1011,9 hPa 0,0 l/m 0,2 km/h (0 Bft) O-SO 112 0 min 0,0 UV-I 8,4 C 11,7 C 0,0 km/h (0 Bft)
25.06.2014 11:10 10,4 C 25,3 C 12,0 C 11,8 C 11,8 C 1,4 C 88 % 92 % 37 % 1011,9 hPa 0,0 l/m 0,2 km/h (0 Bft) NW 315 0 min 0,0 UV-I 8,5 C 11,8 C 0,0 km/h (0 Bft)
25.06.2014 11:15 10,5 C 25,3 C 11,9 C 12,0 C 12,0 C 1,5 C 89 % 92 % 39 % 1011,9 hPa 0,0 l/m 0,3 km/h (0 Bft) S 180 0 min 0,0 UV-I 8,8 C 12,0 C 0,0 km/h (0 Bft)
25.06.2014 11:20 10,5 C 25,3 C 11,9 C 12,0 C 12,0 C 1,5 C 89 % 92 % 39 % 1011,9 hPa 0,0 l/m 0,8 km/h (0 Bft) W 270 0 min 0,0 UV-I 8,8 C 12,0 C 0,0 km/h (0 Bft)
25.06.2014 11:25 10,7 C 25,3 C 12,1 C 12,3 C 12,3 C 1,6 C 89 % 92 % 42 % 1011,9 hPa 0,0 l/m 0,6 km/h (0 Bft) O-NO 67 0 min 0,0 UV-I 9,0 C 12,3 C 0,0 km/h (0 Bft)
25.06.2014 11:30 10,8 C 25,3 C 12,4 C 12,7 C 12,7 C 1,9 C 89 % 93 % 50 % 1011,9 hPa 0,0 l/m 0,0 km/h (0 Bft) NW 315 0 min 0,0 UV-I 9,1 C 12,7 C 0,0 km/h (0 Bft)
25.06.2014 11:35 10,8 C 25,3 C 12,3 C 12,6 C 12,6 C 1,8 C 89 % 93 % 47 % 1011,9 hPa 0,0 l/m 0,8 km/h (0 Bft) W-SW 247 0 min 0,0 UV-I 9,1 C 12,6 C 2,7 km/h (1 Bft)
25.06.2014 11:40 10,8 C 25,2 C 12,3 C 12,5 C 12,5 C 1,7 C 89 % 93 % 45 % 1011,8 hPa 0,0 l/m 1,3 km/h (1 Bft) W-SW 247 0 min 0,0 UV-I 9,1 C 12,5 C 0,0 km/h (0 Bft)
25.06.2014 11:45 10,9 C 25,3 C 12,3 C 12,7 C 12,7 C 1,8 C 89 % 93 % 47 % 1011,8 hPa 0,0 l/m 1,0 km/h (0 Bft) N 360 0 min 0,0 UV-I 9,2 C 12,7 C 0,0 km/h (0 Bft)
25.06.2014 11:50 11,1 C 25,2 C 12,4 C 12,8 C 12,8 C 1,7 C 89 % 93 % 45 % 1011,8 hPa 0,0 l/m 0,3 km/h (0 Bft) NO 45 0 min 0,0 UV-I 9,4 C 12,8 C 0,0 km/h (0 Bft)
25.06.2014 11:55 11,1 C 25,2 C 12,4 C 12,9 C 12,9 C 1,8 C 89 % 93 % 47 % 1011,8 hPa 0,0 l/m 0,6 km/h (0 Bft) W 270 0 min 0,0 UV-I 9,4 C 12,9 C 3,5 km/h (1 Bft)
25.06.2014 12:00 11,3 C 25,2 C 12,5 C 13,2 C 13,2 C 1,9 C 89 % 93 % 50 % 1011,4 hPa 0,0 l/m 0,5 km/h (0 Bft) W-SW 247 0 min 0,0 UV-I 9,6 C 13,2 C 0,0 km/h (0 Bft)
25.06.2014 12:05 11,3 C 25,2 C 12,7 C 13,7 C 13,7 C 2,4 C 89 % 93 % 63 % 1011,4 hPa 0,0 l/m 0,3 km/h (0 Bft) SW 225 0 min 0,0 UV-I 9,6 C 13,7 C 1,6 km/h (1 Bft)
25.06.2014 12:10 11,5 C 25,2 C 13,1 C 14,9 C 14,9 C 3,4 C 89 % 93 % 89 % 1011,4 hPa 0,0 l/m 0,6 km/h (0 Bft) SO 135 5 min 0,0 UV-I 9,8 C 14,9 C 1,6 km/h (1 Bft)
25.06.2014 12:15 11,6 C 25,2 C 13,1 C 15,6 C 15,6 C 4,0 C 89 % 93 % 100 % 1011,4 hPa 0,0 l/m 0,8 km/h (0 Bft) N-NO 22 5 min 0,0 UV-I 9,8 C 15,6 C 1,9 km/h (1 Bft)
25.06.2014 12:20 11,7 C 25,2 C 13,5 C 17,0 C 17,0 C 5,3 C 88 % 93 % 100 % 1011,8 hPa 0,0 l/m 1,4 km/h (1 Bft) W-NW 292 5 min 0,0 UV-I 9,8 C 17,0 C 3,9 km/h (1 Bft)
25.06.2014 12:25 12,0 C 25,2 C 13,6 C 17,6 C 17,6 C 5,6 C 88 % 93 % 100 % 1011,8 hPa 0,0 l/m 1,1 km/h (1 Bft) N-NW 337 5 min 0,0 UV-I 10,1 C 17,6 C 0,0 km/h (0 Bft)
25.06.2014 12:30 12,2 C 25,1 C 13,3 C 18,2 C 18,2 C 6,0 C 87 % 93 % 100 % 1011,8 hPa 0,0 l/m 1,3 km/h (1 Bft) W-SW 247 5 min 0,0 UV-I 10,1 C 18,2 C 3,2 km/h (1 Bft)
25.06.2014 12:35 12,3 C 25,2 C 13,3 C 18,0 C 18,0 C 5,7 C 87 % 92 % 100 % 1011,8 hPa 0,0 l/m 1,0 km/h (0 Bft) O-NO 67 5 min 0,0 UV-I 10,2 C 18,0 C 0,0 km/h (0 Bft)
25.06.2014 12:41 12,7 C 25,1 C 12,8 C 16,6 C 16,6 C 3,9 C 85 % 92 % 100 % 1011,4 hPa 0,0 l/m 1,0 km/h (0 Bft) N 0 6 min 0,0 UV-I 10,2 C 16,6 C 0,0 km/h (0 Bft)
25.06.2014 13:01 12,6 C 25,0 C 13,1 C 14,7 C 14,7 C 2,1 C 85 % 92 % 55 % 1011,7 hPa 0,0 l/m 1,6 km/h (1 Bft) SO 135 0 min 0,0 UV-I 10,1 C 14,7 C 0,0 km/h (0 Bft)
25.06.2014 13:05 12,6 C 25,0 C 13,1 C 14,7 C 14,7 C 2,1 C 85 % 92 % 55 % 1011,7 hPa 0,0 l/m 1,6 km/h (1 Bft) SO 135 0 min 0,0 UV-I 10,1 C 14,7 C 0,0 km/h (0 Bft)
25.06.2014 13:10 12,4 C 25,0 C 13,2 C 13,9 C 13,9 C 1,5 C 85 % 92 % 39 % 1011,7 hPa 0,0 l/m 0,8 km/h (0 Bft) W-SW 247 0 min 0,0 UV-I 9,9 C 13,9 C 0,0 km/h (0 Bft)
25.06.2014 13:15 12,4 C 25,0 C 13,2 C 13,8 C 13,8 C 1,4 C 85 % 92 % 37 % 1011,7 hPa 0,0 l/m 0,2 km/h (0 Bft) N-NO 22 0 min 0,0 UV-I 9,9 C 13,8 C 0,0 km/h (0 Bft)
25.06.2014 13:20 12,4 C 25,0 C 13,2 C 14,1 C 14,1 C 1,7 C 85 % 92 % 45 % 1011,7 hPa 0,0 l/m 0,2 km/h (0 Bft) O-NO 67 0 min 0,0 UV-I 9,9 C 14,1 C 0,0 km/h (0 Bft)
25.06.2014 13:25 12,4 C 25,0 C 13,4 C 14,7 C 14,7 C 2,3 C 86 % 92 % 61 % 1011,7 hPa 0,0 l/m 0,0 km/h (0 Bft) NW 315 0 min 0,0 UV-I 10,1 C 14,7 C 0,0 km/h (0 Bft)
25.06.2014 13:30 12,7 C 25,0 C 13,6 C 15,7 C 15,7 C 3,0 C 86 % 93 % 79 % 1011,7 hPa 0,0 l/m 0,2 km/h (0 Bft) N-NW 337 0 min 0,0 UV-I 10,4 C 15,7 C 0,0 km/h (0 Bft)
25.06.2014 13:35 13,0 C 24,9 C 13,6 C 16,4 C 16,4 C 3,4 C 85 % 93 % 89 % 1011,7 hPa 0,0 l/m 0,5 km/h (0 Bft) NW 315 5 min 0,0 UV-I 10,5 C 16,4 C 1,8 km/h (1 Bft)
25.06.2014 13:40 13,2 C 24,8 C 13,6 C 17,0 C 17,0 C 3,8 C 84 % 92 % 100 % 1011,2 hPa 0,0 l/m 0,6 km/h (0 Bft) O 90 5 min 0,0 UV-I 10,6 C 17,0 C 0,0 km/h (0 Bft)
25.06.2014 13:45 13,3 C 24,8 C 13,7 C 17,7 C 17,7 C 4,4 C 84 % 92 % 100 % 1011,2 hPa 0,0 l/m 0,5 km/h (0 Bft) O-NO 67 5 min 0,0 UV-I 10,7 C 17,7 C 1,9 km/h (1 Bft)
25.06.2014 13:50 13,7 C 24,8 C 14,0 C 19,5 C 19,5 C 5,8 C 84 % 92 % 100 % 1011,2 hPa 0,0 l/m 0,8 km/h (0 Bft) N 360 5 min 0,0 UV-I 11,0 C 19,5 C 0,0 km/h (0 Bft)
25.06.2014 13:55 14,5 C 24,9 C 14,2 C 20,4 C 20,4 C 5,9 C 83 % 92 % 100 % 1011,2 hPa 0,0 l/m 1,1 km/h (1 Bft) O 90 5 min 0,0 UV-I 11,6 C 20,4 C 2,9 km/h (1 Bft)
25.06.2014 14:00 14,5 C 24,9 C 14,1 C 19,6 C 19,6 C 5,1 C 81 % 92 % 100 % 1011,5 hPa 0,0 l/m 1,0 km/h (0 Bft) O-SO 112 5 min 0,0 UV-I 11,3 C 19,6 C 0,0 km/h (0 Bft)
25.06.2014 14:05 14,5 C 24,8 C 14,0 C 19,0 C 19,0 C 4,5 C 81 % 92 % 100 % 1011,5 hPa 0,0 l/m 1,3 km/h (1 Bft) NW 315 5 min 0,0 UV-I 11,3 C 19,0 C 3,1 km/h (1 Bft)
25.06.2014 14:10 14,5 C 24,8 C 14,1 C 18,4 C 18,4 C 3,9 C 81 % 91 % 100 % 1011,5 hPa 0,0 l/m 1,3 km/h (1 Bft) S 180 5 min 0,0 UV-I 11,3 C 18,4 C 1,6 km/h (1 Bft)
25.06.2014 14:15 14,7 C 24,7 C 14,2 C 18,1 C 18,1 C 3,4 C 81 % 92 % 89 % 1011,5 hPa 0,0 l/m 1,4 km/h (1 Bft) SW 225 5 min 0,0 UV-I 11,5 C 18,1 C 1,9 km/h (1 Bft)
25.06.2014 14:20 14,4 C 24,9 C 14,2 C 16,2 C 16,2 C 1,8 C 81 % 92 % 47 % 1011,4 hPa 0,7 l/m 1,9 km/h (1 Bft) S-SO 157 0 min 0,0 UV-I 11,2 C 16,2 C 5,0 km/h (1 Bft)
25.06.2014 14:25 14,2 C 25,2 C 13,9 C 14,9 C 14,9 C 0,7 C 81 % 92 % 18 % 1011,4 hPa 0,0 l/m 2,3 km/h (1 Bft) O-SO 112 0 min 0,0 UV-I 11,0 C 14,9 C 0,0 km/h (0 Bft)
25.06.2014 14:30 13,6 C 25,1 C 13,4 C 13,9 C 13,9 C 0,3 C 81 % 91 % 8 % 1011,4 hPa 2,1 l/m 1,1 km/h (1 Bft) O-SO 112 0 min 0,0 UV-I 10,4 C 13,9 C 0,0 km/h (0 Bft)
25.06.2014 14:35 13,5 C 25,1 C 13,6 C 14,2 C 14,2 C 0,7 C 82 % 91 % 18 % 1011,4 hPa 0,0 l/m 0,0 km/h (0 Bft) S 180 0 min 0,0 UV-I 10,5 C 14,2 C 0,0 km/h (0 Bft)
25.06.2014 14:40 13,4 C 25,2 C 13,6 C 14,6 C 14,6 C 1,2 C 83 % 91 % 32 % 1011,3 hPa 0,0 l/m 0,3 km/h (0 Bft) N-NW 337 0 min 0,0 UV-I 10,6 C 14,6 C 0,0 km/h (0 Bft)
25.06.2014 14:45 13,6 C 25,1 C 13,6 C 14,7 C 14,7 C 1,1 C 83 % 91 % 29 % 1011,3 hPa 0,0 l/m 1,4 km/h (1 Bft) N-NW 337 0 min 0,0 UV-I 10,8 C 14,7 C 2,7 km/h (1 Bft)
25.06.2014 14:50 13,5 C 25,1 C 13,9 C 14,7 C 14,7 C 1,2 C 84 % 92 % 32 % 1011,3 hPa 0,0 l/m 1,8 km/h (1 Bft) O-SO 112 0 min 0,0 UV-I 10,8 C 14,7 C 0,0 km/h (0 Bft)
25.06.2014 14:55 13,6 C 25,1 C 14,0 C 14,8 C 14,8 C 1,2 C 84 % 92 % 32 % 1011,3 hPa 0,0 l/m 1,0 km/h (0 Bft) N-NW 337 0 min 0,0 UV-I 10,9 C 14,8 C 0,0 km/h (0 Bft)
25.06.2014 15:00 13,7 C 24,9 C 14,1 C 15,0 C 15,0 C 1,3 C 84 % 92 % 34 % 1011,2 hPa 0,0 l/m 0,3 km/h (0 Bft) S-SO 157 0 min 0,0 UV-I 11,0 C 15,0 C 2,7 km/h (1 Bft)
25.06.2014 15:05 13,8 C 24,9 C 14,0 C 14,9 C 14,9 C 1,1 C 83 % 92 % 29 % 1011,2 hPa 0,0 l/m 0,6 km/h (0 Bft) N-NW 337 0 min 0,0 UV-I 11,0 C 14,9 C 3,2 km/h (1 Bft)
25.06.2014 15:10 13,9 C 24,9 C 13,8 C 14,6 C 14,6 C 0,7 C 83 % 91 % 18 % 1011,2 hPa 0,0 l/m 0,6 km/h (0 Bft) SW 225 0 min 0,0 UV-I 11,1 C 14,6 C 0,0 km/h (0 Bft)
25.06.2014 15:15 13,8 C 25,1 C 13,9 C 14,7 C 14,7 C 0,9 C 83 % 92 % 24 % 1011,2 hPa 0,0 l/m 0,5 km/h (0 Bft) N-NO 22 0 min 0,0 UV-I 11,0 C 14,7 C 0,0 km/h (0 Bft)
25.06.2014 15:20 13,9 C 25,1 C 14,1 C 14,9 C 14,9 C 1,0 C 83 % 92 % 26 % 1011,0 hPa 0,0 l/m 0,2 km/h (0 Bft) NW 315 0 min 0,0 UV-I 11,1 C 14,9 C 0,0 km/h (0 Bft)
25.06.2014 15:25 13,9 C 25,1 C 14,1 C 14,9 C 14,9 C 1,0 C 83 % 92 % 26 % 1011,0 hPa 0,0 l/m 0,3 km/h (0 Bft) O-NO 67 0 min 0,0 UV-I 11,1 C 14,9 C 2,9 km/h (1 Bft)
25.06.2014 15:30 13,8 C 25,1 C 14,0 C 14,9 C 14,9 C 1,1 C 83 % 92 % 29 % 1011,0 hPa 0,0 l/m 0,8 km/h (0 Bft) NO 45 0 min 0,0 UV-I 11,0 C 14,9 C 0,0 km/h (0 Bft)
25.06.2014 15:35 13,8 C 25,1 C 14,0 C 14,9 C 14,9 C 1,1 C 83 % 92 % 29 % 1011,0 hPa 0,0 l/m 0,6 km/h (0 Bft) O-NO 67 0 min 0,0 UV-I 11,0 C 14,9 C 0,0 km/h (0 Bft)
25.06.2014 15:40 13,7 C 25,1 C 14,0 C 14,4 C 14,4 C 0,7 C 83 % 92 % 18 % 1011,1 hPa 0,0 l/m 0,5 km/h (0 Bft) S-SW 202 0 min 0,0 UV-I 10,9 C 14,4 C 0,0 km/h (0 Bft)
25.06.2014 15:45 13,6 C 25,1 C 14,1 C 14,5 C 14,5 C 0,9 C 84 % 92 % 24 % 1011,1 hPa 0,0 l/m 0,8 km/h (0 Bft) NO 45 0 min 0,0 UV-I 10,9 C 14,5 C 3,1 km/h (1 Bft)
25.06.2014 15:50 13,7 C 24,9 C 14,0 C 14,7 C 14,7 C 1,0 C 84 % 92 % 26 % 1011,1 hPa 0,0 l/m 1,3 km/h (1 Bft) N-NO 22 0 min 0,0 UV-I 11,0 C 14,7 C 3,2 km/h (1 Bft)
25.06.2014 15:55 13,7 C 24,9 C 14,0 C 15,1 C 15,1 C 1,4 C 84 % 92 % 37 % 1011,1 hPa 0,0 l/m 2,3 km/h (1 Bft) NW 315 0 min 0,0 UV-I 11,0 C 15,1 C 3,1 km/h (1 Bft)
25.06.2014 16:00 13,7 C 24,9 C 14,0 C 14,9 C 14,9 C 1,2 C 84 % 92 % 32 % 1011,3 hPa 0,0 l/m 3,4 km/h (1 Bft) NW 315 0 min 0,0 UV-I 11,0 C 14,9 C 8,9 km/h (2 Bft)
25.06.2014 16:05 13,7 C 24,9 C 13,9 C 14,7 C 14,7 C 1,0 C 84 % 92 % 26 % 1011,3 hPa 0,0 l/m 2,6 km/h (1 Bft) NO 45 0 min 0,0 UV-I 11,0 C 14,7 C 0,0 km/h (0 Bft)
25.06.2014 16:10 13,8 C 24,9 C 14,1 C 14,6 C 14,6 C 0,8 C 84 % 92 % 21 % 1011,3 hPa 0,0 l/m 1,1 km/h (1 Bft) W-NW 292 0 min 0,0 UV-I 11,1 C 14,6 C 5,5 km/h (1 Bft)
25.06.2014 16:15 13,7 C 24,8 C 14,3 C 14,4 C 14,4 C 0,7 C 83 % 92 % 18 % 1011,3 hPa 0,0 l/m 0,8 km/h (0 Bft) SW 225 0 min 0,0 UV-I 10,9 C 14,4 C 2,4 km/h (1 Bft)
25.06.2014 16:20 13,7 C 24,9 C 14,5 C 14,5 C 14,5 C 0,8 C 84 % 92 % 21 % 1011,2 hPa 0,0 l/m 0,8 km/h (0 Bft) S-SW 202 0 min 0,0 UV-I 11,0 C 14,5 C 0,0 km/h (0 Bft)
25.06.2014 16:25 13,7 C 24,9 C 14,5 C 14,8 C 14,8 C 1,1 C 84 % 92 % 29 % 1011,2 hPa 0,0 l/m 0,2 km/h (0 Bft) SW 225 0 min 0,0 UV-I 11,0 C 14,8 C 0,0 km/h (0 Bft)
25.06.2014 16:30 13,9 C 24,9 C 14,6 C 15,2 C 15,2 C 1,3 C 84 % 92 % 34 % 1011,2 hPa 0,0 l/m 0,3 km/h (0 Bft) W-SW 247 0 min 0,0 UV-I 11,2 C 15,2 C 2,6 km/h (1 Bft)
25.06.2014 16:35 13,9 C 24,8 C 14,7 C 15,5 C 15,5 C 1,6 C 84 % 92 % 42 % 1011,2 hPa 0,0 l/m 1,0 km/h (0 Bft) SW 225 0 min 0,0 UV-I 11,2 C 15,5 C 2,4 km/h (1 Bft)
25.06.2014 16:40 13,9 C 24,8 C 14,5 C 15,6 C 15,6 C 1,7 C 84 % 92 % 45 % 1011,2 hPa 0,0 l/m 1,6 km/h (1 Bft) NW 315 0 min 0,0 UV-I 11,2 C 15,6 C 3,2 km/h (1 Bft)
25.06.2014 16:45 13,9 C 24,8 C 14,5 C 15,6 C 15,6 C 1,7 C 84 % 92 % 45 % 1011,2 hPa 0,0 l/m 1,1 km/h (1 Bft) W 270 0 min 0,0 UV-I 11,2 C 15,6 C 0,0 km/h (0 Bft)
25.06.2014 16:50 13,9 C 24,9 C 14,4 C 15,7 C 15,7 C 1,8 C 84 % 92 % 47 % 1011,2 hPa 0,0 l/m 0,3 km/h (0 Bft) W 270 0 min 0,0 UV-I 11,2 C 15,7 C 0,0 km/h (0 Bft)
25.06.2014 16:55 14,0 C 24,9 C 14,3 C 15,1 C 15,1 C 1,1 C 83 % 92 % 29 % 1011,2 hPa 0,0 l/m 0,3 km/h (0 Bft) N-NW 337 0 min 0,0 UV-I 11,2 C 15,1 C 0,0 km/h (0 Bft)
25.06.2014 17:00 14,0 C 24,9 C 14,2 C 14,4 C 14,4 C 0,4 C 83 % 92 % 11 % 1011,3 hPa 0,0 l/m 0,3 km/h (0 Bft) S-SO 157 0 min 0,0 UV-I 11,2 C 14,4 C 0,0 km/h (0 Bft)
25.06.2014 17:05 13,8 C 24,9 C 14,0 C 13,9 C 13,9 C 0,1 C 83 % 92 % 3 % 1011,3 hPa 0,7 l/m 0,6 km/h (0 Bft) W-SW 247 0 min 0,0 UV-I 11,0 C 13,9 C 2,4 km/h (1 Bft)
25.06.2014 17:10 13,6 C 24,9 C 13,9 C 13,5 C 13,3 C 0,0 C 83 % 92 % 0 % 1011,3 hPa 0,0 l/m 1,1 km/h (1 Bft) W 270 0 min 0,0 UV-I 10,8 C 13,3 C 0,0 km/h (0 Bft)
25.06.2014 17:15 13,4 C 24,9 C 13,7 C 13,3 C 13,1 C 0,0 C 84 % 91 % 0 % 1011,3 hPa 0,0 l/m 1,4 km/h (1 Bft) SW 225 0 min 0,0 UV-I 10,8 C 13,1 C 4,3 km/h (1 Bft)
25.06.2014 17:20 13,1 C 24,9 C 13,4 C 12,9 C 12,5 C 0,0 C 83 % 91 % 0 % 1011,2 hPa 0,0 l/m 2,6 km/h (1 Bft) S 180 0 min 0,0 UV-I 10,3 C 12,5 C 2,3 km/h (1 Bft)
25.06.2014 17:25 12,9 C 24,9 C 13,2 C 12,6 C 12,0 C 0,0 C 83 % 91 % 0 % 1011,2 hPa 0,7 l/m 3,1 km/h (1 Bft) SO 135 0 min 0,0 UV-I 10,1 C 12,0 C 5,0 km/h (1 Bft)
25.06.2014 17:30 12,5 C 25,0 C 13,0 C 12,3 C 11,8 C 0,0 C 83 % 92 % 0 % 1011,2 hPa 0,0 l/m 3,2 km/h (1 Bft) N 360 0 min 0,0 UV-I 9,7 C 11,8 C 14,5 km/h (3 Bft)
25.06.2014 17:35 12,2 C 25,0 C 12,9 C 12,0 C 11,7 C 0,0 C 84 % 92 % 0 % 1011,2 hPa 0,7 l/m 3,9 km/h (1 Bft) SW 225 0 min 0,0 UV-I 9,6 C 11,7 C 4,8 km/h (1 Bft)
25.06.2014 17:40 11,9 C 25,0 C 12,7 C 11,8 C 11,5 C 0,0 C 84 % 92 % 0 % 1011,4 hPa 0,7 l/m 4,2 km/h (1 Bft) S-SO 157 0 min 0,0 UV-I 9,3 C 11,5 C 4,7 km/h (1 Bft)
25.06.2014 17:45 11,7 C 25,0 C 12,7 C 11,6 C 11,4 C 0,0 C 84 % 92 % 0 % 1011,4 hPa 0,0 l/m 3,7 km/h (1 Bft) S 180 0 min 0,0 UV-I 9,1 C 11,4 C 1,6 km/h (1 Bft)
25.06.2014 17:50 11,6 C 25,1 C 12,7 C 11,5 C 11,4 C 0,0 C 85 % 92 % 0 % 1011,4 hPa 0,0 l/m 2,3 km/h (1 Bft) W 270 0 min 0,0 UV-I 9,2 C 11,4 C 0,0 km/h (0 Bft)
25.06.2014 17:55 11,5 C 25,1 C 12,6 C 11,5 C 11,4 C 0,0 C 85 % 92 % 0 % 1011,4 hPa 0,0 l/m 0,6 km/h (0 Bft) S-SW 202 0 min 0,0 UV-I 9,1 C 11,4 C 0,0 km/h (0 Bft)
25.06.2014 18:00 11,3 C 25,0 C 12,4 C 11,4 C 11,4 C 0,1 C 85 % 92 % 3 % 1011,6 hPa 0,0 l/m 0,2 km/h (0 Bft) S-SW 202 0 min 0,0 UV-I 8,9 C 11,4 C 0,0 km/h (0 Bft)
25.06.2014 18:05 11,3 C 25,0 C 12,4 C 11,4 C 11,4 C 0,1 C 85 % 92 % 3 % 1011,6 hPa 0,0 l/m 0,3 km/h (0 Bft) SO 135 0 min 0,0 UV-I 8,9 C 11,4 C 0,0 km/h (0 Bft)
25.06.2014 18:10 11,2 C 25,0 C 12,4 C 11,6 C 11,6 C 0,4 C 86 % 92 % 11 % 1011,6 hPa 0,7 l/m 0,3 km/h (0 Bft) S 180 0 min 0,0 UV-I 8,9 C 11,6 C 0,0 km/h (0 Bft)
25.06.2014 18:15 11,1 C 25,0 C 12,4 C 11,6 C 11,6 C 0,5 C 86 % 93 % 13 % 1011,6 hPa 0,0 l/m 0,2 km/h (0 Bft) W-SW 247 0 min 0,0 UV-I 8,8 C 11,6 C 0,0 km/h (0 Bft)
25.06.2014 18:20 11,0 C 25,1 C 12,5 C 11,8 C 11,8 C 0,8 C 86 % 93 % 21 % 1011,7 hPa 0,0 l/m 0,0 km/h (0 Bft) S 180 0 min 0,0 UV-I 8,7 C 11,8 C 2,1 km/h (1 Bft)
25.06.2014 18:25 11,1 C 25,0 C 12,5 C 11,8 C 11,8 C 0,7 C 86 % 93 % 18 % 1011,7 hPa 0,0 l/m 0,2 km/h (0 Bft) S 180 0 min 0,0 UV-I 8,8 C 11,8 C 0,0 km/h (0 Bft)
25.06.2014 18:30 11,1 C 25,0 C 12,7 C 12,0 C 12,0 C 0,9 C 87 % 93 % 24 % 1011,7 hPa 0,0 l/m 0,2 km/h (0 Bft) SO 135 0 min 0,0 UV-I 9,0 C 12,0 C 0,0 km/h (0 Bft)
25.06.2014 18:35 11,1 C 25,0 C 12,7 C 12,3 C 12,3 C 1,2 C 87 % 93 % 32 % 1011,7 hPa 0,0 l/m 0,0 km/h (0 Bft) S 180 0 min 0,0 UV-I 9,0 C 12,3 C 0,0 km/h (0 Bft)
25.06.2014 18:41 11,3 C 25,0 C 12,8 C 12,7 C 12,7 C 1,4 C 88 % 93 % 37 % 1011,8 hPa 0,0 l/m 0,2 km/h (0 Bft) N 0 0 min 0,0 UV-I 9,4 C 12,7 C 2,1 km/h (1 Bft)
25.06.2014 19:01 11,5 C 25,0 C 12,9 C 12,6 C 12,6 C 1,1 C 88 % 93 % 29 % 1011,6 hPa 0,0 l/m 0,5 km/h (0 Bft) W-SW 247 0 min 0,0 UV-I 9,6 C 12,6 C 1,8 km/h (1 Bft)
25.06.2014 19:05 11,5 C 25,0 C 12,9 C 12,6 C 12,6 C 1,1 C 88 % 93 % 29 % 1011,6 hPa 0,0 l/m 0,5 km/h (0 Bft) W-SW 247 0 min 0,0 UV-I 9,6 C 12,6 C 1,8 km/h (1 Bft)
25.06.2014 19:10 11,5 C 25,0 C 12,8 C 12,3 C 12,3 C 0,8 C 88 % 93 % 21 % 1011,6 hPa 0,0 l/m 0,3 km/h (0 Bft) W-SW 247 0 min 0,0 UV-I 9,6 C 12,3 C 1,9 km/h (1 Bft)
25.06.2014 19:15 11,3 C 25,0 C 12,6 C 12,0 C 12,0 C 0,7 C 87 % 93 % 18 % 1011,6 hPa 0,0 l/m 0,3 km/h (0 Bft) NW 315 0 min 0,0 UV-I 9,2 C 12,0 C 1,6 km/h (1 Bft)
25.06.2014 19:20 11,2 C 25,0 C 12,5 C 11,7 C 11,7 C 0,5 C 87 % 93 % 13 % 1011,9 hPa 0,0 l/m 1,0 km/h (0 Bft) W-SW 247 0 min 0,0 UV-I 9,1 C 11,7 C 0,0 km/h (0 Bft)
25.06.2014 19:25 11,1 C 25,0 C 12,4 C 11,7 C 11,7 C 0,6 C 87 % 93 % 16 % 1011,9 hPa 0,0 l/m 1,0 km/h (0 Bft) S 180 0 min 0,0 UV-I 9,0 C 11,7 C 0,0 km/h (0 Bft)
25.06.2014 19:30 11,1 C 25,0 C 12,3 C 11,7 C 11,7 C 0,6 C 87 % 93 % 16 % 1011,9 hPa 0,0 l/m 0,3 km/h (0 Bft) SW 225 0 min 0,0 UV-I 9,0 C 11,7 C 0,0 km/h (0 Bft)
25.06.2014 19:35 11,1 C 24,9 C 12,3 C 11,8 C 11,8 C 0,7 C 87 % 93 % 18 % 1011,9 hPa 0,0 l/m 0,5 km/h (0 Bft) SW 225 0 min 0,0 UV-I 9,0 C 11,8 C 0,0 km/h (0 Bft)
25.06.2014 19:40 11,1 C 24,9 C 12,4 C 11,8 C 11,8 C 0,7 C 87 % 93 % 18 % 1012,0 hPa 0,0 l/m 0,8 km/h (0 Bft) W-SW 247 0 min 0,0 UV-I 9,0 C 11,8 C 0,0 km/h (0 Bft)
25.06.2014 19:45 11,0 C 24,9 C 12,4 C 11,8 C 11,8 C 0,8 C 87 % 93 % 21 % 1012,0 hPa 0,0 l/m 1,0 km/h (0 Bft) W-SW 247 0 min 0,0 UV-I 8,9 C 11,8 C 2,7 km/h (1 Bft)
25.06.2014 19:50 10,9 C 24,9 C 12,3 C 11,8 C 11,8 C 0,9 C 87 % 93 % 24 % 1012,0 hPa 0,0 l/m 1,4 km/h (1 Bft) SW 225 0 min 0,0 UV-I 8,8 C 11,8 C 3,1 km/h (1 Bft)
25.06.2014 19:55 10,9 C 24,9 C 12,3 C 11,8 C 11,8 C 0,9 C 87 % 93 % 24 % 1012,0 hPa 0,0 l/m 1,9 km/h (1 Bft) W-SW 247 0 min 0,0 UV-I 8,8 C 11,8 C 2,6 km/h (1 Bft)
25.06.2014 20:00 10,8 C 24,8 C 12,3 C 11,8 C 11,8 C 1,0 C 87 % 93 % 26 % 1012,0 hPa 0,0 l/m 1,6 km/h (1 Bft) S 180 0 min 0,0 UV-I 8,7 C 11,8 C 3,1 km/h (1 Bft)
25.06.2014 20:05 10,8 C 24,8 C 12,3 C 11,8 C 11,8 C 1,0 C 87 % 93 % 26 % 1012,0 hPa 0,0 l/m 1,9 km/h (1 Bft) W-SW 247 0 min 0,0 UV-I 8,7 C 11,8 C 5,6 km/h (1 Bft)
25.06.2014 20:10 10,9 C 24,7 C 12,3 C 11,8 C 11,8 C 0,9 C 87 % 93 % 24 % 1012,0 hPa 0,0 l/m 3,4 km/h (1 Bft) W 270 0 min 0,0 UV-I 8,8 C 11,8 C 4,5 km/h (1 Bft)
25.06.2014 20:15 10,8 C 24,8 C 12,1 C 11,8 C 11,8 C 1,0 C 87 % 93 % 26 % 1012,0 hPa 0,0 l/m 4,7 km/h (1 Bft) N 360 0 min 0,0 UV-I 8,7 C 11,8 C 7,2 km/h (2 Bft)
25.06.2014 20:20 10,7 C 24,8 C 11,9 C 11,6 C 11,6 C 0,9 C 87 % 93 % 24 % 1012,1 hPa 0,0 l/m 4,3 km/h (1 Bft) N-NO 22 0 min 0,0 UV-I 8,6 C 11,6 C 4,2 km/h (1 Bft)
25.06.2014 20:25 10,7 C 24,7 C 11,7 C 11,4 C 11,4 C 0,7 C 87 % 93 % 18 % 1012,1 hPa 0,0 l/m 3,5 km/h (1 Bft) S 180 0 min 0,0 UV-I 8,6 C 11,4 C 3,9 km/h (1 Bft)
25.06.2014 20:30 10,5 C 24,7 C 11,5 C 10,8 C 10,8 C 0,3 C 86 % 93 % 8 % 1012,1 hPa 0,0 l/m 3,9 km/h (1 Bft) NW 315 0 min 0,0 UV-I 8,3 C 10,8 C 8,4 km/h (2 Bft)
25.06.2014 20:35 10,4 C 24,7 C 11,4 C 10,6 C 10,6 C 0,2 C 86 % 93 % 5 % 1012,1 hPa 0,0 l/m 4,3 km/h (1 Bft) S 180 0 min 0,0 UV-I 8,2 C 10,6 C 6,3 km/h (2 Bft)
25.06.2014 20:40 10,3 C 24,7 C 11,5 C 10,4 C 10,4 C 0,1 C 86 % 93 % 3 % 1013,0 hPa 0,0 l/m 2,9 km/h (1 Bft) S-SW 202 0 min 0,0 UV-I 8,1 C 10,4 C 1,8 km/h (1 Bft)
25.06.2014 20:45 10,3 C 24,7 C 11,3 C 10,4 C 10,4 C 0,1 C 86 % 93 % 3 % 1013,0 hPa 0,0 l/m 1,9 km/h (1 Bft) N-NO 22 0 min 0,0 UV-I 8,1 C 10,4 C 2,4 km/h (1 Bft)
25.06.2014 20:50 10,3 C 24,7 C 11,5 C 10,4 C 10,4 C 0,1 C 87 % 93 % 3 % 1013,0 hPa 0,0 l/m 1,6 km/h (1 Bft) S-SO 157 0 min 0,0 UV-I 8,2 C 10,4 C 3,5 km/h (1 Bft)
25.06.2014 20:55 10,3 C 24,7 C 11,3 C 10,5 C 10,5 C 0,2 C 87 % 93 % 5 % 1013,0 hPa 0,0 l/m 1,4 km/h (1 Bft) SW 225 0 min 0,0 UV-I 8,2 C 10,5 C 2,3 km/h (1 Bft)
25.06.2014 21:00 10,3 C 24,8 C 11,4 C 10,6 C 10,6 C 0,3 C 87 % 93 % 8 % 1013,2 hPa 0,7 l/m 0,8 km/h (0 Bft) S 180 0 min 0,0 UV-I 8,2 C 10,6 C 3,1 km/h (1 Bft)
25.06.2014 21:05 10,3 C 24,8 C 11,5 C 10,6 C 10,6 C 0,3 C 87 % 93 % 8 % 1013,2 hPa 0,0 l/m 0,8 km/h (0 Bft) N-NO 22 0 min 0,0 UV-I 8,2 C 10,6 C 1,9 km/h (1 Bft)
25.06.2014 21:10 10,3 C 24,8 C 11,7 C 10,7 C 10,7 C 0,4 C 88 % 93 % 11 % 1013,2 hPa 0,0 l/m 0,8 km/h (0 Bft) SO 135 5 min 0,0 UV-I 8,4 C 10,7 C 0,0 km/h (0 Bft)
25.06.2014 21:15 10,3 C 24,9 C 11,7 C 10,8 C 10,8 C 0,5 C 88 % 93 % 0 % 1013,2 hPa 0,0 l/m 0,5 km/h (0 Bft) W 270 0 min 0,0 UV-I 8,4 C 10,8 C 0,0 km/h (0 Bft)
25.06.2014 21:20 10,3 C 24,8 C 11,7 C 10,9 C 10,9 C 0,6 C 88 % 93 % 0 % 1013,1 hPa 0,0 l/m 0,0 km/h (0 Bft) O-NO 67 0 min 0,0 UV-I 8,4 C 10,9 C 0,0 km/h (0 Bft)
25.06.2014 21:25 10,3 C 24,9 C 11,7 C 11,0 C 11,0 C 0,7 C 88 % 93 % 0 % 1013,1 hPa 0,0 l/m 0,0 km/h (0 Bft) S-SO 157 0 min 0,0 UV-I 8,4 C 11,0 C 0,0 km/h (0 Bft)
25.06.2014 21:30 10,3 C 24,9 C 11,9 C 11,1 C 11,1 C 0,8 C 88 % 93 % 0 % 1013,1 hPa 0,0 l/m 0,0 km/h (0 Bft) S-SO 157 0 min 0,0 UV-I 8,4 C 11,1 C 0,0 km/h (0 Bft)
25.06.2014 21:35 10,3 C 24,9 C 11,9 C 11,1 C 11,1 C 0,8 C 88 % 93 % 0 % 1013,1 hPa 0,0 l/m 0,0 km/h (0 Bft) S 180 0 min 0,0 UV-I 8,4 C 11,1 C 0,0 km/h (0 Bft)
25.06.2014 21:40 10,4 C 24,9 C 11,8 C 11,0 C 11,0 C 0,6 C 88 % 93 % 0 % 1013,6 hPa 0,7 l/m 0,0 km/h (0 Bft) NO 45 0 min 0,0 UV-I 8,5 C 11,0 C 0,0 km/h (0 Bft)
25.06.2014 21:45 10,4 C 24,8 C 11,8 C 11,0 C 11,0 C 0,6 C 88 % 93 % 0 % 1013,6 hPa 0,0 l/m 0,0 km/h (0 Bft) SO 135 0 min 0,0 UV-I 8,5 C 11,0 C 0,0 km/h (0 Bft)
25.06.2014 21:50 10,4 C 24,8 C 11,8 C 10,8 C 10,8 C 0,4 C 88 % 93 % 0 % 1013,6 hPa 0,0 l/m 0,0 km/h (0 Bft) W 270 0 min 0,0 UV-I 8,5 C 10,8 C 0,0 km/h (0 Bft)
25.06.2014 21:55 10,3 C 24,8 C 11,7 C 10,6 C 10,6 C 0,3 C 88 % 93 % 0 % 1013,6 hPa 0,0 l/m 0,0 km/h (0 Bft) S-SW 202 0 min 0,0 UV-I 8,4 C 10,6 C 0,0 km/h (0 Bft)
25.06.2014 22:00 10,2 C 24,8 C 11,5 C 10,4 C 10,4 C 0,2 C 88 % 93 % 0 % 1013,6 hPa 0,0 l/m 0,0 km/h (0 Bft) O-NO 67 0 min 0,0 UV-I 8,3 C 10,4 C 0,0 km/h (0 Bft)
25.06.2014 22:05 10,2 C 24,8 C 11,5 C 10,2 C 10,2 C 0,0 C 88 % 93 % 0 % 1013,6 hPa 0,0 l/m 0,0 km/h (0 Bft) O-SO 112 0 min 0,0 UV-I 8,3 C 10,2 C 0,0 km/h (0 Bft)
25.06.2014 22:10 10,0 C 24,8 C 11,3 C 10,0 C 10,0 C 0,0 C 88 % 93 % 0 % 1013,6 hPa 0,0 l/m 0,0 km/h (0 Bft) O-NO 67 0 min 0,0 UV-I 8,1 C 10,0 C 0,0 km/h (0 Bft)
25.06.2014 22:15 10,0 C 24,8 C 11,2 C 9,9 C 9,8 C 0,0 C 88 % 94 % 0 % 1013,6 hPa 0,0 l/m 0,0 km/h (0 Bft) O-SO 112 0 min 0,0 UV-I 8,1 C 9,8 C 0,0 km/h (0 Bft)
25.06.2014 22:20 9,9 C 24,8 C 11,1 C 9,8 C 9,7 C 0,0 C 88 % 94 % 0 % 1013,6 hPa 0,0 l/m 0,0 km/h (0 Bft) O-NO 67 0 min 0,0 UV-I 8,0 C 9,7 C 0,0 km/h (0 Bft)
25.06.2014 22:25 9,8 C 24,8 C 11,1 C 9,7 C 9,6 C 0,0 C 88 % 94 % 0 % 1013,6 hPa 0,0 l/m 0,0 km/h (0 Bft) W-SW 247 0 min 0,0 UV-I 7,9 C 9,6 C 0,0 km/h (0 Bft)
25.06.2014 22:30 9,7 C 24,8 C 11,1 C 9,6 C 9,5 C 0,0 C 88 % 94 % 0 % 1013,6 hPa 0,0 l/m 0,0 km/h (0 Bft) S 180 0 min 0,0 UV-I 7,8 C 9,5 C 0,0 km/h (0 Bft)
25.06.2014 22:35 9,6 C 24,8 C 11,1 C 9,6 C 9,6 C 0,0 C 88 % 94 % 0 % 1013,6 hPa 0,0 l/m 0,0 km/h (0 Bft) S 180 0 min 0,0 UV-I 7,7 C 9,6 C 0,0 km/h (0 Bft)
25.06.2014 22:40 9,7 C 24,8 C 11,3 C 9,8 C 9,8 C 0,1 C 88 % 94 % 0 % 1014,3 hPa 0,0 l/m 0,0 km/h (0 Bft) S-SO 157 0 min 0,0 UV-I 7,8 C 9,8 C 0,0 km/h (0 Bft)
25.06.2014 22:45 9,6 C 24,7 C 11,3 C 9,9 C 9,9 C 0,3 C 88 % 94 % 0 % 1014,3 hPa 0,0 l/m 0,0 km/h (0 Bft) S-SO 157 0 min 0,0 UV-I 7,7 C 9,9 C 0,0 km/h (0 Bft)
25.06.2014 22:50 9,6 C 24,7 C 11,2 C 10,0 C 10,0 C 0,4 C 88 % 94 % 0 % 1014,3 hPa 0,0 l/m 0,0 km/h (0 Bft) S-SO 157 0 min 0,0 UV-I 7,7 C 10,0 C 0,0 km/h (0 Bft)
25.06.2014 22:55 9,6 C 24,7 C 11,2 C 10,0 C 10,0 C 0,4 C 89 % 94 % 0 % 1014,3 hPa 0,0 l/m 0,0 km/h (0 Bft) NO 45 0 min 0,0 UV-I 7,9 C 10,0 C 0,0 km/h (0 Bft)
25.06.2014 23:00 9,6 C 24,7 C 11,2 C 10,2 C 10,2 C 0,6 C 89 % 94 % 0 % 1014,1 hPa 0,0 l/m 0,0 km/h (0 Bft) S 180 0 min 0,0 UV-I 7,9 C 10,2 C 0,0 km/h (0 Bft)
25.06.2014 23:05 9,7 C 24,7 C 11,2 C 10,3 C 10,3 C 0,6 C 89 % 94 % 0 % 1014,1 hPa 0,0 l/m 0,0 km/h (0 Bft) SW 225 0 min 0,0 UV-I 8,0 C 10,3 C 0,0 km/h (0 Bft)
25.06.2014 23:10 9,7 C 24,7 C 11,3 C 10,4 C 10,4 C 0,7 C 89 % 94 % 0 % 1014,1 hPa 0,0 l/m 0,0 km/h (0 Bft) S 180 0 min 0,0 UV-I 8,0 C 10,4 C 0,0 km/h (0 Bft)
25.06.2014 23:15 9,7 C 24,7 C 11,3 C 10,4 C 10,4 C 0,7 C 89 % 94 % 0 % 1014,1 hPa 0,0 l/m 0,0 km/h (0 Bft) S-SW 202 0 min 0,0 UV-I 8,0 C 10,4 C 1,6 km/h (1 Bft)
25.06.2014 23:20 9,7 C 24,7 C 11,3 C 10,3 C 10,3 C 0,6 C 89 % 94 % 0 % 1014,5 hPa 0,0 l/m 0,2 km/h (0 Bft) N-NO 22 0 min 0,0 UV-I 8,0 C 10,3 C 0,0 km/h (0 Bft)
25.06.2014 23:25 9,7 C 24,7 C 11,3 C 10,4 C 10,4 C 0,7 C 89 % 94 % 0 % 1014,5 hPa 0,0 l/m 0,2 km/h (0 Bft) NW 315 0 min 0,0 UV-I 8,0 C 10,4 C 0,0 km/h (0 Bft)
25.06.2014 23:30 9,7 C 24,7 C 11,3 C 10,4 C 10,4 C 0,7 C 89 % 94 % 0 % 1014,5 hPa 0,0 l/m 0,0 km/h (0 Bft) SW 225 0 min 0,0 UV-I 8,0 C 10,4 C 1,6 km/h (1 Bft)
25.06.2014 23:35 9,8 C 24,7 C 11,3 C 10,5 C 10,5 C 0,7 C 89 % 94 % 0 % 1014,5 hPa 0,0 l/m 0,0 km/h (0 Bft) W 270 0 min 0,0 UV-I 8,1 C 10,5 C 0,0 km/h (0 Bft)
25.06.2014 23:40 9,9 C 24,7 C 11,2 C 10,5 C 10,5 C 0,6 C 89 % 94 % 0 % 1014,1 hPa 0,0 l/m 0,0 km/h (0 Bft) NW 315 0 min 0,0 UV-I 8,2 C 10,5 C 0,0 km/h (0 Bft)
25.06.2014 23:45 9,9 C 24,7 C 11,2 C 10,4 C 10,4 C 0,5 C 89 % 94 % 0 % 1014,1 hPa 0,0 l/m 0,2 km/h (0 Bft) W-SW 247 0 min 0,0 UV-I 8,2 C 10,4 C 0,0 km/h (0 Bft)
25.06.2014 23:50 9,9 C 24,7 C 11,2 C 10,4 C 10,4 C 0,5 C 90 % 94 % 0 % 1014,1 hPa 0,0 l/m 0,2 km/h (0 Bft) O 90 0 min 0,0 UV-I 8,3 C 10,4 C 0,0 km/h (0 Bft)
25.06.2014 23:55 9,9 C 24,7 C 11,2 C 10,4 C 10,4 C 0,5 C 90 % 94 % 0 % 1014,1 hPa 0,0 l/m 0,0 km/h (0 Bft) O-NO 67 0 min 0,0 UV-I 8,3 C 10,4 C 0,0 km/h (0 Bft)
_ Min-Zeit 22:35 14:15 22:20 22:30 22:30 00:00 14:00 00:00 00:00 08:20 - 00:00 - - - 00:00 22:35 22:30 00:00
Minimum _ 9,6 C 24,7 C 11,1 C 9,6 C 9,5 C 0,0 C 81 % 82 % 0 % 1010,5 hPa - 0,0 km/h (0 Bft) - - - 0,0 UV-I 7,7 C 9,5 C 0,0 km/h (0 Bft)
_ Max-Zeit 14:15 00:10 16:35 13:55 13:55 12:30 23:50 22:15 12:15 23:20 14:30 20:15 - - 12:41 00:00 13:55 13:55 17:30
Maximum _ 14,7 C 25,8 C 14,7 C 20,4 C 20,4 C 6,0 C 90 % 94 % 100 % 1014,5 hPa 2,1 l/m 4,7 km/h
N (1 Bft)
- - 6 min 0,0 UV-I 11,6 C 20,4 C 14,5 km/h
N (3 Bft)
Durchschnitt _ 11,6 C 25,2 C 12,6 C 12,6 C 12,6 C 1,0 C 86 % 90 % 23 % 1012,0 hPa #15,1 l/m 0,7 km/h (0 Bft) S - #1:26 h 0,0 UV-I 9,4 C 12,6 C 1,1 km/h (1 Bft)
2014 www.wetterstation-wechselburg.de